createdAt,value
2018-07-25T00:01:46.452Z,20.44
2018-07-25T00:04:15.443Z,20.51
2018-07-25T00:06:44.497Z,20.57
2018-07-25T00:09:13.593Z,20.61
2018-07-25T00:11:42.744Z,20.64
2018-07-25T00:14:11.784Z,20.67
2018-07-25T00:16:40.812Z,20.69
2018-07-25T00:19:09.917Z,20.69
2018-07-25T00:21:38.895Z,20.67
2018-07-25T00:24:08.012Z,20.66
2018-07-25T00:26:37.088Z,20.63
2018-07-25T00:29:06.131Z,20.63
2018-07-25T00:31:35.128Z,20.65
2018-07-25T00:34:04.097Z,20.67
2018-07-25T00:36:33.166Z,20.68
2018-07-25T00:39:02.150Z,20.65
2018-07-25T00:41:31.233Z,20.64
2018-07-25T00:44:00.261Z,20.64
2018-07-25T00:46:29.315Z,20.61
2018-07-25T00:48:58.364Z,20.60
2018-07-25T00:51:27.348Z,20.54
2018-07-25T00:53:56.368Z,20.55
2018-07-25T00:56:25.332Z,20.54
2018-07-25T00:58:54.316Z,20.56
2018-07-25T01:01:23.376Z,20.58
2018-07-25T01:03:52.490Z,20.61
2018-07-25T01:06:21.512Z,20.62
2018-07-25T01:08:50.483Z,20.66
2018-07-25T01:11:19.539Z,20.68
2018-07-25T01:13:48.568Z,20.65
2018-07-25T01:16:17.549Z,20.64
2018-07-25T01:18:46.515Z,20.63
2018-07-25T01:21:15.633Z,20.66
2018-07-25T01:23:44.689Z,20.69
2018-07-25T01:26:13.776Z,20.73
2018-07-25T01:28:42.769Z,20.73
2018-07-25T01:31:11.820Z,20.71
2018-07-25T01:33:40.830Z,20.69
2018-07-25T01:36:09.802Z,20.69
2018-07-25T01:38:38.839Z,20.71
2018-07-25T01:41:07.795Z,20.72
2018-07-25T01:43:36.817Z,20.72
2018-07-25T01:46:05.899Z,20.75
2018-07-25T01:48:34.861Z,20.76
2018-07-25T01:51:03.849Z,20.77
2018-07-25T01:53:32.808Z,20.74
2018-07-25T01:56:01.925Z,20.76
2018-07-25T01:58:30.895Z,20.82
2018-07-25T02:00:59.903Z,20.88
2018-07-25T02:03:28.894Z,20.92
2018-07-25T02:05:57.925Z,20.90
2018-07-25T02:08:26.969Z,20.90
2018-07-25T02:10:55.960Z,20.89
2018-07-25T02:13:24.997Z,20.87
2018-07-25T02:15:54.037Z,20.88
2018-07-25T02:18:23.010Z,20.90
2018-07-25T02:20:52.003Z,20.90
2018-07-25T02:23:21.004Z,20.91
2018-07-25T02:25:50.045Z,20.92
2018-07-25T02:28:19.045Z,20.91
2018-07-25T02:30:48.177Z,20.90
2018-07-25T02:33:17.435Z,20.89
2018-07-25T02:35:46.428Z,20.88
2018-07-25T02:38:15.476Z,20.88
2018-07-25T02:40:44.513Z,20.86
2018-07-25T02:43:13.561Z,20.85
2018-07-25T02:45:46.971Z,20.86
2018-07-25T02:48:16.970Z,20.88
2018-07-25T02:50:45.972Z,20.88
2018-07-25T02:53:15.026Z,20.88
2018-07-25T02:55:44.125Z,20.91
2018-07-25T02:58:13.101Z,20.93
2018-07-25T03:00:42.163Z,20.94
2018-07-25T03:03:11.288Z,20.90
2018-07-25T03:05:40.298Z,20.91
2018-07-25T03:08:09.337Z,20.93
2018-07-25T03:10:42.254Z,20.94
2018-07-25T03:13:11.254Z,20.93
2018-07-25T03:15:40.332Z,20.98
2018-07-25T03:18:09.341Z,21.02
2018-07-25T03:20:38.321Z,21.03
2018-07-25T03:23:07.360Z,21.05
2018-07-25T03:25:36.389Z,21.07
2018-07-25T03:28:05.508Z,21.07
2018-07-25T03:30:34.545Z,21.08
2018-07-25T03:33:03.636Z,21.11
2018-07-25T03:35:32.636Z,21.13
2018-07-25T03:38:01.615Z,21.11
2018-07-25T03:40:30.687Z,21.14
2018-07-25T03:42:59.657Z,21.13
2018-07-25T03:45:28.729Z,21.19
2018-07-25T03:47:57.753Z,21.25
2018-07-25T03:50:26.800Z,21.35
2018-07-25T03:52:55.856Z,21.34
2018-07-25T03:55:24.888Z,21.35
2018-07-25T03:57:53.872Z,21.37
2018-07-25T04:00:22.890Z,21.37
2018-07-25T04:02:51.996Z,21.33
2018-07-25T04:05:20.997Z,21.37
2018-07-25T04:07:49.968Z,21.42
2018-07-25T04:10:19.072Z,21.45
2018-07-25T04:12:48.028Z,21.46
2018-07-25T04:15:17.058Z,21.51
2018-07-25T04:17:47.275Z,21.54
2018-07-25T04:20:17.448Z,21.56
2018-07-25T04:22:46.428Z,21.61
2018-07-25T04:25:15.412Z,21.63
2018-07-25T04:27:47.660Z,21.67
2018-07-25T04:30:17.841Z,21.67
2018-07-25T04:32:47.786Z,21.68
2018-07-25T04:35:17.461Z,21.69
2018-07-25T04:37:46.573Z,21.70
2018-07-25T04:40:15.597Z,21.71
2018-07-25T04:42:44.585Z,21.74
2018-07-25T04:45:13.709Z,21.79
2018-07-25T04:47:42.768Z,21.82
2018-07-25T04:50:11.758Z,21.87
2018-07-25T04:52:40.752Z,21.91
2018-07-25T04:55:09.906Z,21.95
2018-07-25T04:57:39.000Z,22.02
2018-07-25T05:00:08.121Z,22.05
2018-07-25T05:02:37.154Z,22.08
2018-07-25T05:05:06.353Z,22.25
2018-07-25T05:07:35.413Z,22.47
2018-07-25T05:10:04.405Z,22.56
2018-07-25T05:12:33.553Z,22.59
2018-07-25T05:15:02.632Z,22.58
2018-07-25T05:17:31.638Z,22.52
2018-07-25T05:20:00.705Z,22.51
2018-07-25T05:22:29.752Z,22.57
2018-07-25T05:24:58.742Z,22.61
2018-07-25T05:27:27.740Z,22.67
2018-07-25T05:29:56.832Z,22.71
2018-07-25T05:32:25.855Z,22.74
2018-07-25T05:34:54.876Z,22.81
2018-07-25T05:37:23.879Z,22.90
2018-07-25T05:39:52.901Z,22.96
2018-07-25T05:42:22.005Z,23.10
2018-07-25T05:44:50.989Z,23.25
2018-07-25T05:47:20.152Z,23.31
2018-07-25T05:49:49.316Z,23.35
2018-07-25T05:52:18.285Z,23.51
2018-07-25T05:54:47.336Z,23.58
2018-07-25T05:57:16.430Z,23.85
2018-07-25T05:59:45.489Z,24.29
2018-07-25T06:02:14.458Z,24.61
2018-07-25T06:04:43.505Z,25.23
2018-07-25T06:07:12.521Z,25.63
2018-07-25T06:09:41.485Z,25.89
2018-07-25T06:12:10.505Z,25.78
2018-07-25T06:14:39.615Z,25.50
2018-07-25T06:17:08.591Z,25.30
2018-07-25T06:19:37.618Z,25.21
2018-07-25T06:22:06.696Z,25.18
2018-07-25T06:24:35.660Z,25.18
2018-07-25T06:27:04.691Z,25.34
2018-07-25T06:29:33.676Z,25.11
2018-07-25T06:32:02.701Z,25.08
2018-07-25T06:34:31.765Z,25.07
2018-07-25T06:37:00.773Z,24.97
2018-07-25T06:39:29.809Z,25.01
2018-07-25T06:41:58.853Z,25.12
2018-07-25T06:44:27.875Z,25.06
2018-07-25T06:46:56.897Z,24.96
2018-07-25T06:49:25.863Z,24.74
2018-07-25T06:51:54.902Z,24.60
2018-07-25T06:54:23.973Z,24.38
2018-07-25T06:56:53.920Z,24.18
2018-07-25T06:59:23.180Z,24.00
2018-07-25T07:01:52.289Z,23.96
2018-07-25T07:04:21.273Z,24.02
2018-07-25T07:06:50.359Z,24.01
2018-07-25T07:09:19.416Z,24.05
2018-07-25T07:11:48.488Z,24.03
2018-07-25T07:14:17.594Z,24.17
2018-07-25T07:16:46.580Z,24.52
2018-07-25T07:19:16.023Z,24.71
2018-07-25T07:21:45.053Z,24.90
2018-07-25T07:24:14.016Z,25.26
2018-07-25T07:26:43.016Z,25.59
2018-07-25T07:29:12.092Z,26.17
2018-07-25T07:31:41.188Z,26.90
2018-07-25T07:34:10.240Z,27.74
2018-07-25T07:36:39.202Z,28.46
2018-07-25T07:39:11.423Z,28.67
2018-07-25T07:41:40.672Z,28.62
2018-07-25T07:44:09.781Z,28.62
2018-07-25T07:46:38.859Z,28.68
2018-07-25T07:49:07.837Z,28.56
2018-07-25T07:51:36.912Z,28.43
2018-07-25T07:54:05.938Z,28.53
2018-07-25T07:56:34.944Z,28.79
2018-07-25T07:59:03.904Z,29.14
2018-07-25T08:01:32.920Z,29.50
2018-07-25T08:04:01.872Z,29.81
2018-07-25T08:06:30.816Z,29.85
2018-07-25T08:08:59.775Z,29.98
2018-07-25T08:11:28.815Z,30.08
2018-07-25T08:13:57.973Z,30.03
2018-07-25T08:16:26.967Z,30.16
2018-07-25T08:18:55.954Z,30.18
2018-07-25T08:21:24.957Z,30.36
2018-07-25T08:23:54.072Z,30.27
2018-07-25T08:26:23.072Z,30.32
2018-07-25T08:28:52.085Z,30.31
2018-07-25T08:31:21.056Z,30.44
2018-07-25T08:33:50.077Z,30.15
2018-07-25T08:36:19.158Z,29.87
2018-07-25T08:38:48.133Z,29.60
2018-07-25T08:41:17.232Z,29.70
2018-07-25T08:43:46.232Z,29.91
2018-07-25T08:46:15.301Z,29.85
2018-07-25T08:48:44.339Z,29.59
2018-07-25T08:51:13.298Z,29.38
2018-07-25T08:53:42.269Z,29.14
2018-07-25T08:56:11.223Z,29.21
2018-07-25T08:58:40.204Z,29.51
2018-07-25T09:01:09.146Z,30.09
2018-07-25T09:03:38.178Z,30.76
2018-07-25T09:06:07.217Z,31.28
2018-07-25T09:08:36.227Z,31.73
2018-07-25T09:11:05.229Z,31.74
2018-07-25T09:13:34.241Z,31.25
2018-07-25T09:16:03.230Z,30.99
2018-07-25T09:18:32.255Z,29.81
2018-07-25T09:21:01.417Z,28.28
2018-07-25T09:23:30.470Z,27.31
2018-07-25T09:25:59.498Z,26.93
2018-07-25T09:28:28.516Z,26.14
2018-07-25T09:30:57.512Z,25.42
2018-07-25T09:33:26.569Z,24.68
2018-07-25T09:35:55.559Z,23.77
2018-07-25T09:38:24.653Z,23.13
2018-07-25T09:40:53.717Z,22.71
2018-07-25T09:43:22.730Z,22.44
2018-07-25T09:45:51.873Z,22.27
2018-07-25T09:48:20.856Z,22.34
2018-07-25T09:50:49.905Z,22.35
2018-07-25T09:53:19.001Z,22.42
2018-07-25T09:55:48.197Z,22.48
2018-07-25T09:58:17.299Z,22.50
2018-07-25T10:00:49.342Z,22.51
2018-07-25T10:03:19.231Z,22.65
2018-07-25T10:05:48.216Z,22.86
2018-07-25T10:08:18.117Z,23.08
2018-07-25T10:10:47.127Z,23.26
2018-07-25T10:13:16.115Z,23.37
2018-07-25T10:15:45.169Z,23.50
2018-07-25T10:18:14.228Z,23.63
2018-07-25T10:20:43.367Z,23.83
2018-07-25T10:23:12.401Z,23.96
2018-07-25T10:25:41.389Z,24.14
2018-07-25T10:28:10.461Z,24.33
2018-07-25T10:30:39.472Z,24.43
2018-07-25T10:33:08.597Z,24.72
2018-07-25T10:35:37.762Z,25.06
2018-07-25T10:38:06.856Z,25.39
2018-07-25T10:40:35.887Z,25.60
2018-07-25T10:43:04.929Z,25.59
2018-07-25T10:45:33.978Z,25.62
2018-07-25T10:48:02.971Z,25.87
2018-07-25T10:50:31.927Z,26.07
2018-07-25T10:53:01.145Z,26.32
2018-07-25T10:55:30.142Z,26.58
2018-07-25T10:57:59.155Z,26.82
2018-07-25T11:00:28.235Z,26.86
2018-07-25T11:02:57.193Z,27.01
2018-07-25T11:05:26.187Z,27.23
2018-07-25T11:07:55.195Z,27.34
2018-07-25T11:10:24.260Z,27.40
2018-07-25T11:12:53.480Z,27.44
2018-07-25T11:15:22.455Z,27.64
2018-07-25T11:17:52.345Z,27.80
2018-07-25T11:20:21.349Z,28.11
2018-07-25T11:22:50.452Z,28.42
2018-07-25T11:25:19.368Z,28.64
2018-07-25T11:27:48.460Z,28.52
2018-07-25T11:30:17.420Z,28.81
2018-07-25T11:32:46.403Z,29.07
2018-07-25T11:35:15.371Z,29.27
2018-07-25T11:37:44.440Z,29.56
2018-07-25T11:40:13.482Z,29.91
2018-07-25T11:42:42.458Z,30.13
2018-07-25T11:45:11.472Z,30.34
2018-07-25T11:47:40.544Z,30.47
2018-07-25T11:50:09.651Z,30.95
2018-07-25T11:52:38.568Z,31.48
2018-07-25T11:55:07.520Z,32.53
2018-07-25T11:57:36.484Z,32.91
2018-07-25T12:00:05.752Z,33.38
2018-07-25T12:02:34.847Z,33.55
2018-07-25T12:05:03.917Z,32.76
2018-07-25T12:07:32.957Z,32.37
2018-07-25T12:10:02.026Z,32.09
2018-07-25T12:12:31.097Z,31.37
2018-07-25T12:15:00.228Z,30.24
2018-07-25T12:17:29.333Z,29.38
2018-07-25T12:19:58.427Z,28.88
2018-07-25T12:22:27.408Z,27.66
2018-07-25T12:24:56.396Z,26.44
2018-07-25T12:27:25.424Z,25.62
2018-07-25T12:29:54.480Z,25.05
2018-07-25T12:32:23.561Z,24.77
2018-07-25T12:34:52.630Z,24.56
2018-07-25T12:37:21.785Z,24.73
2018-07-25T12:39:50.840Z,24.81
2018-07-25T12:42:19.892Z,25.08
2018-07-25T12:44:48.960Z,25.30
2018-07-25T12:47:18.054Z,25.53
2018-07-25T12:49:47.059Z,25.72
2018-07-25T12:52:16.158Z,26.01
2018-07-25T12:54:45.234Z,26.37
2018-07-25T12:57:14.350Z,26.74
2018-07-25T12:59:43.325Z,27.10
2018-07-25T13:02:12.476Z,27.34
2018-07-25T13:04:41.440Z,27.41
2018-07-25T13:07:10.491Z,27.55
2018-07-25T13:09:39.524Z,27.95
2018-07-25T13:12:08.662Z,28.67
2018-07-25T13:14:37.755Z,29.37
2018-07-25T13:17:06.952Z,29.56
2018-07-25T13:19:35.920Z,30.02
2018-07-25T13:22:04.936Z,30.07
2018-07-25T13:24:34.010Z,29.92
2018-07-25T13:27:03.062Z,29.89
2018-07-25T13:29:32.205Z,29.93
2018-07-25T13:32:01.222Z,29.59
2018-07-25T13:34:30.264Z,29.42
2018-07-25T13:36:59.388Z,29.30
2018-07-25T13:39:28.394Z,29.12
2018-07-25T13:41:57.436Z,28.96
2018-07-25T13:44:26.441Z,28.88
2018-07-25T13:46:55.487Z,28.94
2018-07-25T13:49:24.517Z,28.69
2018-07-25T13:51:53.570Z,28.77
2018-07-25T13:54:22.621Z,28.60
2018-07-25T13:56:51.647Z,28.50
2018-07-25T13:59:20.841Z,28.50
2018-07-25T14:01:49.904Z,28.36
2018-07-25T14:04:19.064Z,28.35
2018-07-25T14:06:48.051Z,28.30
2018-07-25T14:09:17.145Z,28.00
2018-07-25T14:11:46.260Z,27.97
2018-07-25T14:14:15.303Z,27.96
2018-07-25T14:16:44.354Z,28.09
2018-07-25T14:19:13.368Z,28.20
2018-07-25T14:21:42.486Z,28.24
2018-07-25T14:24:11.547Z,28.10
2018-07-25T14:26:40.532Z,28.05
2018-07-25T14:29:09.748Z,28.01
2018-07-25T14:31:38.715Z,27.96
2018-07-25T14:34:07.872Z,27.69
2018-07-25T14:36:36.831Z,27.57
2018-07-25T14:39:09.309Z,27.48
2018-07-25T14:41:38.751Z,27.36
2018-07-25T14:44:07.856Z,27.21
2018-07-25T14:46:36.979Z,26.95
2018-07-25T14:49:06.345Z,26.78
2018-07-25T14:51:35.406Z,26.66
2018-07-25T14:54:04.383Z,26.58
2018-07-25T14:56:33.494Z,26.41
2018-07-25T14:59:02.542Z,26.24
2018-07-25T15:01:31.539Z,26.15
2018-07-25T15:04:00.668Z,26.14
2018-07-25T15:06:29.748Z,26.07
2018-07-25T15:08:58.831Z,26.06
2018-07-25T15:11:27.896Z,25.90
2018-07-25T15:13:57.146Z,25.78
2018-07-25T15:16:26.136Z,25.66
2018-07-25T15:18:55.411Z,25.59
2018-07-25T15:21:24.412Z,25.33
2018-07-25T15:24:01.900Z,25.19
2018-07-25T15:26:30.913Z,25.05
2018-07-25T15:29:00.858Z,25.03
2018-07-25T15:31:29.960Z,24.78
2018-07-25T15:33:59.076Z,24.36
2018-07-25T15:36:43.821Z,24.10
2018-07-25T15:39:16.430Z,23.84
2018-07-25T15:41:46.684Z,23.69
2018-07-25T15:44:16.354Z,23.54
2018-07-25T15:46:45.456Z,23.42
2018-07-25T15:49:14.547Z,23.28
2018-07-25T15:51:43.717Z,23.11
2018-07-25T15:54:12.880Z,22.98
2018-07-25T15:56:42.029Z,22.98
2018-07-25T15:59:11.100Z,22.88
2018-07-25T16:01:40.184Z,22.88
2018-07-25T16:04:09.576Z,22.93
2018-07-25T16:06:38.596Z,22.92
2018-07-25T16:09:09.096Z,22.80
2018-07-25T16:11:38.696Z,22.75
2018-07-25T16:14:07.913Z,22.72
2018-07-25T16:16:36.984Z,22.72
2018-07-25T16:19:06.375Z,22.68
2018-07-25T16:21:35.392Z,22.65
2018-07-25T16:24:04.441Z,22.64
2018-07-25T16:26:33.444Z,22.60
2018-07-25T16:29:06.138Z,22.58
2018-07-25T16:31:35.174Z,22.55
2018-07-25T16:34:04.437Z,22.53
2018-07-25T16:36:33.616Z,22.51
2018-07-25T16:39:02.820Z,22.51
2018-07-25T16:41:31.938Z,22.52
2018-07-25T16:44:03.762Z,22.54
2018-07-25T16:46:32.937Z,22.48
2018-07-25T16:49:02.115Z,22.43
2018-07-25T16:51:31.281Z,22.40
2018-07-25T16:54:00.285Z,22.30
2018-07-25T16:56:44.111Z,22.18
2018-07-25T16:59:13.228Z,22.13
2018-07-25T17:01:42.338Z,22.08
2018-07-25T17:04:11.449Z,22.04
2018-07-25T17:06:40.533Z,21.99
2018-07-25T17:09:11.549Z,21.96
2018-07-25T17:11:40.696Z,21.91
2018-07-25T17:14:09.861Z,21.81
2018-07-25T17:16:38.992Z,21.79
2018-07-25T17:19:08.053Z,21.79
2018-07-25T17:21:37.233Z,21.75
2018-07-25T17:24:06.309Z,21.72
2018-07-25T17:26:35.383Z,21.67
2018-07-25T17:29:04.441Z,21.60
2018-07-25T17:31:33.530Z,21.52
2018-07-25T17:34:02.625Z,21.45
2018-07-25T17:36:31.656Z,21.42
2018-07-25T17:39:00.804Z,21.40
2018-07-25T17:41:30.083Z,21.39
2018-07-25T17:43:59.190Z,21.36
2018-07-25T17:46:28.351Z,21.35
2018-07-25T17:48:57.561Z,21.36
2018-07-25T17:51:26.679Z,21.33
2018-07-25T17:53:55.841Z,21.31
2018-07-25T17:56:25.170Z,21.29
2018-07-25T17:58:54.306Z,21.31
2018-07-25T18:01:23.420Z,21.30
2018-07-25T18:03:52.857Z,21.26
2018-07-25T18:06:22.023Z,21.20
2018-07-25T18:08:51.053Z,21.14
2018-07-25T18:11:20.129Z,21.12
2018-07-25T18:13:54.258Z,21.09
2018-07-25T18:16:23.252Z,21.07
2018-07-25T18:18:52.313Z,21.02
2018-07-25T18:21:21.375Z,21.03
2018-07-25T18:23:50.462Z,21.05
2018-07-25T18:26:19.488Z,21.06
2018-07-25T18:28:48.540Z,21.06
2018-07-25T18:31:17.593Z,21.06
2018-07-25T18:33:46.653Z,21.08
2018-07-25T18:36:15.744Z,21.09
2018-07-25T18:38:44.772Z,21.08
2018-07-25T18:41:13.859Z,21.08
2018-07-25T18:43:42.902Z,21.09
2018-07-25T18:46:12.071Z,21.07
2018-07-25T18:48:41.226Z,21.03
2018-07-25T18:51:10.356Z,21.00
2018-07-25T18:53:39.466Z,20.98
2018-07-25T18:56:08.592Z,20.95
2018-07-25T18:58:37.637Z,20.95
2018-07-25T19:01:06.600Z,20.95
2018-07-25T19:03:35.658Z,20.94
2018-07-25T19:06:04.698Z,20.93
2018-07-25T19:08:33.705Z,20.92
2018-07-25T19:11:02.755Z,20.91
2018-07-25T19:13:35.796Z,20.89
2018-07-25T19:16:05.925Z,20.88
2018-07-25T19:18:35.138Z,20.90
2018-07-25T19:21:04.219Z,20.89
2018-07-25T19:23:33.201Z,20.88
2018-07-25T19:26:02.336Z,20.84
2018-07-25T19:28:31.364Z,20.83
2018-07-25T19:31:00.332Z,20.80
2018-07-25T19:33:29.619Z,20.78
2018-07-25T19:35:58.641Z,20.78
2018-07-25T19:38:27.677Z,20.81
2018-07-25T19:40:56.640Z,20.78
2018-07-25T19:43:25.760Z,20.82
2018-07-25T19:45:54.825Z,20.80
2018-07-25T19:48:23.906Z,20.83
2018-07-25T19:50:52.889Z,20.84
2018-07-25T19:53:21.965Z,20.83
2018-07-25T19:55:51.005Z,20.84
2018-07-25T19:58:19.972Z,20.85
2018-07-25T20:00:49.114Z,20.83
2018-07-25T20:03:18.126Z,20.79
2018-07-25T20:05:47.153Z,20.76
2018-07-25T20:08:16.211Z,20.76
2018-07-25T20:10:45.317Z,20.73
2018-07-25T20:13:14.293Z,20.75
2018-07-25T20:15:48.518Z,20.76
2018-07-25T20:18:17.524Z,20.80
2018-07-25T20:20:46.606Z,20.83
2018-07-25T20:23:15.589Z,20.78
2018-07-25T20:25:44.608Z,20.78
2018-07-25T20:28:13.644Z,20.73
2018-07-25T20:30:42.664Z,20.69
2018-07-25T20:33:11.748Z,20.61
2018-07-25T20:35:41.174Z,20.55
2018-07-25T20:38:10.190Z,20.51
2018-07-25T20:40:39.218Z,20.46
2018-07-25T20:43:08.506Z,20.42
2018-07-25T20:45:37.529Z,20.37
2018-07-25T20:48:06.482Z,20.35
2018-07-25T20:50:35.511Z,20.34
2018-07-25T20:53:04.463Z,20.31
2018-07-25T20:55:33.424Z,20.29
2018-07-25T20:58:02.444Z,20.28
2018-07-25T21:00:35.163Z,20.24
2018-07-25T21:03:06.138Z,20.19
2018-07-25T21:05:35.470Z,20.16
2018-07-25T21:08:04.560Z,20.15
2018-07-25T21:10:33.599Z,20.12
2018-07-25T21:13:02.510Z,20.10
2018-07-25T21:15:31.544Z,20.10
2018-07-25T21:18:00.501Z,20.09
2018-07-25T21:20:29.483Z,20.09
2018-07-25T21:22:58.449Z,20.10
2018-07-25T21:25:27.525Z,20.09
2018-07-25T21:27:56.603Z,20.08
2018-07-25T21:30:25.660Z,20.05
2018-07-25T21:32:54.643Z,20.05
2018-07-25T21:35:23.781Z,20.05
2018-07-25T21:37:52.961Z,20.04
2018-07-25T21:40:21.911Z,20.03
2018-07-25T21:42:50.999Z,20.03
2018-07-25T21:45:19.973Z,20.04
2018-07-25T21:47:48.991Z,19.98
2018-07-25T21:50:17.960Z,19.96
2018-07-25T21:52:46.925Z,19.95
2018-07-25T21:55:15.953Z,19.94
2018-07-25T21:57:44.908Z,19.92
2018-07-25T22:00:15.828Z,19.91
2018-07-25T22:02:46.246Z,19.89
2018-07-25T22:05:15.360Z,19.87
2018-07-25T22:07:45.322Z,19.87
2018-07-25T22:10:14.349Z,19.84
2018-07-25T22:12:43.370Z,19.83
2018-07-25T22:15:12.609Z,19.80
2018-07-25T22:17:41.693Z,19.79
2018-07-25T22:20:12.477Z,19.83
2018-07-25T22:22:41.855Z,19.83
2018-07-25T22:25:11.237Z,19.81
2018-07-25T22:27:40.446Z,19.79
2018-07-25T22:30:09.609Z,19.79
2018-07-25T22:32:38.565Z,19.80
2018-07-25T22:35:07.541Z,19.86
2018-07-25T22:37:36.500Z,19.89
2018-07-25T22:40:05.556Z,19.92
2018-07-25T22:42:34.572Z,19.93
2018-07-25T22:45:03.681Z,19.98
2018-07-25T22:47:32.777Z,20.03
2018-07-25T22:50:01.858Z,20.06
2018-07-25T22:52:30.843Z,20.09
2018-07-25T22:54:59.796Z,20.08
2018-07-25T22:57:28.898Z,20.08
2018-07-25T22:59:57.937Z,20.09
2018-07-25T23:02:27.028Z,20.14
2018-07-25T23:04:56.012Z,20.19
2018-07-25T23:07:25.032Z,20.26
2018-07-25T23:09:54.087Z,20.28
2018-07-25T23:12:23.173Z,20.34
2018-07-25T23:14:52.145Z,20.39
2018-07-25T23:17:21.219Z,20.46
2018-07-25T23:19:50.289Z,20.48
2018-07-25T23:22:19.320Z,20.41
2018-07-25T23:24:48.336Z,20.35
2018-07-25T23:27:17.280Z,20.38
2018-07-25T23:29:46.378Z,20.42
2018-07-25T23:32:15.331Z,20.44
2018-07-25T23:34:44.311Z,20.48
2018-07-25T23:37:13.306Z,20.50
2018-07-25T23:39:42.245Z,20.54
2018-07-25T23:42:11.197Z,20.56
2018-07-25T23:44:40.185Z,20.57
2018-07-25T23:47:09.313Z,20.60
2018-07-25T23:49:38.258Z,20.55
2018-07-25T23:52:07.330Z,20.53
2018-07-25T23:54:36.365Z,20.57
2018-07-25T23:57:05.322Z,20.55
2018-07-25T23:59:34.291Z,20.55
